Time;durP1;ratioP1;P1;durP2;ratioP2;P2;SDS_P1;SDS_P2;PMS_P1;PMS_P2;Temp;Humidity;BMP_temperature;BMP_pressure;BME280_temperature;BME280_humidity;BME280_pressure;Samples;Min_cycle;Max_cycle;Signal;HPM_P1;HPM_P2
2022/07/02 00:00:38;;;;;;;8.35;6.25;;;;;;;;;;5078754;22;20879;-82
2022/07/02 00:03:04;;;;;;;11.40;6.43;;;;;;;;;;5014105;28;20072;-77
2022/07/02 00:05:31;;;;;;;10.52;5.80;;;;;;;;;;5025971;28;20442;-82
2022/07/02 00:07:56;;;;;;;8.73;5.78;;;;;;;;;;5002592;28;20033;-79
2022/07/02 00:10:22;;;;;;;8.00;5.40;;;;;;;;;;5025391;28;20527;-81
2022/07/02 00:12:47;;;;;;;7.57;5.03;;;;;;;;;;5016806;28;20116;-81
2022/07/02 00:15:14;;;;;;;9.00;5.57;;;;;;;;;;5020834;28;20024;-78
2022/07/02 00:17:39;;;;;;;7.30;5.63;;;;;;;;;;5020336;28;20041;-82
2022/07/02 00:20:05;;;;;;;8.75;5.53;;;;;;;;;;5020089;28;20401;-82
2022/07/02 00:22:31;;;;;;;7.20;5.32;;;;;;;;;;5019743;28;20346;-79
2022/07/02 00:24:57;;;;;;;5.47;4.38;;;;;;;;;;5015048;28;20378;-82
2022/07/02 00:27:22;;;;;;;8.63;4.60;;;;;;;;;;5023784;28;20028;-81
2022/07/02 00:29:53;;;;;;;9.15;5.30;;;;;;;;;;5009895;28;20061;-81
2022/07/02 00:32:19;;;;;;;8.80;4.53;;;;;;;;;;5024458;28;20029;-82
2022/07/02 00:34:45;;;;;;;8.25;4.78;;;;;;;;;;5021807;28;20032;-78
2022/07/02 00:37:10;;;;;;;11.85;4.85;;;;;;;;;;5021778;28;20479;-79
2022/07/02 00:39:36;;;;;;;10.27;4.60;;;;;;;;;;5022299;28;20049;-79
2022/07/02 00:42:02;;;;;;;9.50;4.18;;;;;;;;;;5024238;28;20030;-81
2022/07/02 00:44:28;;;;;;;7.70;4.88;;;;;;;;;;5021105;28;20036;-83
2022/07/02 00:46:54;;;;;;;6.22;4.75;;;;;;;;;;5023204;28;20025;-81
2022/07/02 00:49:20;;;;;;;8.88;4.55;;;;;;;;;;5025104;28;20571;-79
2022/07/02 00:51:45;;;;;;;8.57;4.85;;;;;;;;;;5025965;28;20481;-82
2022/07/02 00:54:11;;;;;;;6.68;4.68;;;;;;;;;;5026470;28;20043;-81
2022/07/02 00:56:36;;;;;;;6.38;4.60;;;;;;;;;;5006962;28;20041;-78
2022/07/02 00:59:03;;;;;;;6.05;4.32;;;;;;;;;;5021378;28;20025;-78
2022/07/02 01:01:29;;;;;;;9.27;4.57;;;;;;;;;;4999507;28;20042;-78
2022/07/02 01:03:59;;;;;;;8.73;4.85;;;;;;;;;;5004882;28;20038;-77
2022/07/02 01:06:29;;;;;;;6.75;4.72;;;;;;;;;;5001025;28;20026;-81
2022/07/02 01:11:43;;;;;;;7.30;4.38;;;;;;;;;;5001224;28;20036;-78
2022/07/02 01:14:09;;;;;;;9.48;5.38;;;;;;;;;;5006243;28;20481;-78
2022/07/02 01:16:34;;;;;;;7.82;5.03;;;;;;;;;;5002350;28;20045;-78
2022/07/02 01:18:59;;;;;;;5.78;5.18;;;;;;;;;;4998900;28;20025;-82
2022/07/02 01:21:24;;;;;;;10.43;5.22;;;;;;;;;;5012788;28;20099;-82
2022/07/02 01:23:50;;;;;;;9.65;5.55;;;;;;;;;;5005018;28;20022;-77
2022/07/02 01:26:15;;;;;;;9.55;5.50;;;;;;;;;;4993687;28;21327;-77
2022/07/02 01:28:40;;;;;;;10.07;5.30;;;;;;;;;;4999311;28;20057;-77
2022/07/02 01:31:09;;;;;;;6.40;4.97;;;;;;;;;;5000708;28;20022;-77
2022/07/02 01:33:37;;;;;;;8.60;4.95;;;;;;;;;;5003290;28;20053;-82
2022/07/02 01:36:02;;;;;;;8.35;5.65;;;;;;;;;;4996987;28;20046;-82
2022/07/02 01:38:27;;;;;;;7.30;5.00;;;;;;;;;;5000275;28;20535;-81
2022/07/02 01:41:38;;;;;;;10.00;6.22;;;;;;;;;;5001772;28;20042;-82
2022/07/02 01:43:38;;;;;;;8.32;4.97;;;;;;;;;;4999934;28;20116;-81
2022/07/02 01:46:03;;;;;;;7.55;4.88;;;;;;;;;;4996089;28;20085;-78
2022/07/02 01:48:29;;;;;;;6.33;5.67;;;;;;;;;;5000219;28;20032;-80
2022/07/02 01:50:54;;;;;;;9.90;5.10;;;;;;;;;;5001341;28;20300;-78
2022/07/02 01:53:19;;;;;;;7.20;5.50;;;;;;;;;;5000548;28;20064;-83
2022/07/02 01:55:45;;;;;;;8.25;5.30;;;;;;;;;;4998474;28;20037;-81
2022/07/02 01:58:10;;;;;;;9.07;6.22;;;;;;;;;;4998621;28;20022;-77
2022/07/02 02:00:35;;;;;;;6.47;4.70;;;;;;;;;;5004518;28;20030;-79
2022/07/02 02:03:00;;;;;;;8.77;4.88;;;;;;;;;;5000325;28;21786;-83
2022/07/02 02:05:25;;;;;;;9.73;6.07;;;;;;;;;;5018526;28;20428;-78
2022/07/02 02:07:51;;;;;;;9.05;4.95;;;;;;;;;;5024629;28;20335;-78
2022/07/02 02:10:16;;;;;;;7.88;5.70;;;;;;;;;;5021108;28;20037;-78
2022/07/02 02:12:41;;;;;;;6.88;5.30;;;;;;;;;;5018284;28;20496;-81
2022/07/02 02:15:06;;;;;;;7.75;5.88;;;;;;;;;;5004996;28;20388;-78
2022/07/02 02:17:35;;;;;;;9.35;6.10;;;;;;;;;;5004897;28;20049;-78
2022/07/02 02:20:00;;;;;;;7.50;5.05;;;;;;;;;;5018440;28;20038;-81
2022/07/02 02:22:25;;;;;;;6.13;5.30;;;;;;;;;;5009571;28;20729;-78
2022/07/02 02:24:50;;;;;;;7.80;5.57;;;;;;;;;;5006927;28;20377;-76
2022/07/02 02:27:16;;;;;;;10.00;5.88;;;;;;;;;;5023320;28;20274;-77
2022/07/02 02:29:41;;;;;;;8.40;6.18;;;;;;;;;;5001041;28;20029;-82
2022/07/02 02:32:06;;;;;;;9.70;6.30;;;;;;;;;;5016440;28;20026;-79
2022/07/02 02:34:31;;;;;;;8.52;6.32;;;;;;;;;;5001281;28;20484;-82
2022/07/02 02:36:57;;;;;;;8.98;6.10;;;;;;;;;;5018049;28;20029;-82
2022/07/02 02:39:22;;;;;;;9.32;6.32;;;;;;;;;;5016948;28;20048;-83
2022/07/02 02:41:47;;;;;;;14.23;6.63;;;;;;;;;;5018962;28;20104;-78
2022/07/02 02:44:12;;;;;;;9.70;6.47;;;;;;;;;;5017003;28;20344;-80
2022/07/02 02:46:38;;;;;;;9.40;7.15;;;;;;;;;;5020259;28;20026;-81
2022/07/02 02:49:03;;;;;;;11.55;6.35;;;;;;;;;;5018792;28;20497;-81
2022/07/02 02:51:28;;;;;;;17.53;6.60;;;;;;;;;;5017078;28;20029;-82
2022/07/02 02:53:53;;;;;;;9.35;7.05;;;;;;;;;;5017330;28;20289;-82
2022/07/02 02:56:19;;;;;;;8.77;7.28;;;;;;;;;;5021245;28;20494;-81
2022/07/02 02:58:44;;;;;;;10.73;6.70;;;;;;;;;;5003581;28;20021;-77
2022/07/02 03:01:09;;;;;;;10.57;7.03;;;;;;;;;;5003781;28;20056;-81
2022/07/02 03:03:34;;;;;;;8.43;6.90;;;;;;;;;;5003335;28;20096;-78
2022/07/02 03:06:00;;;;;;;8.65;6.30;;;;;;;;;;5015091;28;20108;-78
2022/07/02 03:08:25;;;;;;;11.07;6.93;;;;;;;;;;5018004;28;20442;-82
2022/07/02 03:10:50;;;;;;;8.52;7.60;;;;;;;;;;5019740;28;20021;-79
2022/07/02 03:13:15;;;;;;;13.05;7.32;;;;;;;;;;5019942;28;20108;-78
2022/07/02 03:15:41;;;;;;;10.30;6.85;;;;;;;;;;5003954;28;20570;-78
2022/07/02 03:18:06;;;;;;;10.93;8.02;;;;;;;;;;5021026;28;20033;-81
2022/07/02 03:20:32;;;;;;;8.68;6.85;;;;;;;;;;4998925;28;20084;-78
2022/07/02 03:22:58;;;;;;;11.27;6.80;;;;;;;;;;5015398;28;20481;-82
2022/07/02 03:25:23;;;;;;;11.38;7.30;;;;;;;;;;4997675;28;20018;-81
2022/07/02 03:27:48;;;;;;;12.30;6.97;;;;;;;;;;5021178;28;20028;-82
2022/07/02 03:30:14;;;;;;;13.23;7.25;;;;;;;;;;5025897;28;20068;-79
2022/07/02 03:32:39;;;;;;;11.70;6.88;;;;;;;;;;5006254;28;20124;-82
2022/07/02 03:35:05;;;;;;;9.73;7.00;;;;;;;;;;5026441;28;20155;-79
2022/07/02 03:37:30;;;;;;;10.38;7.20;;;;;;;;;;5020379;28;20026;-82
2022/07/02 03:39:56;;;;;;;7.85;6.78;;;;;;;;;;5020578;28;20101;-81
2022/07/02 03:42:21;;;;;;;15.52;8.05;;;;;;;;;;5004307;28;20033;-79
2022/07/02 03:44:46;;;;;;;9.88;6.95;;;;;;;;;;5022455;28;20435;-77
2022/07/02 03:47:12;;;;;;;12.05;7.82;;;;;;;;;;5004529;28;20037;-79
2022/07/02 03:49:37;;;;;;;9.77;7.10;;;;;;;;;;5020438;28;20033;-78
2022/07/02 03:52:03;;;;;;;8.77;5.90;;;;;;;;;;5020851;28;20095;-78
2022/07/02 03:54:28;;;;;;;8.93;7.18;;;;;;;;;;5002661;28;20175;-82
2022/07/02 03:56:53;;;;;;;11.40;6.30;;;;;;;;;;5021721;28;20380;-78
2022/07/02 03:59:18;;;;;;;10.40;6.20;;;;;;;;;;5004455;28;20089;-78
2022/07/02 04:01:44;;;;;;;8.40;6.45;;;;;;;;;;5022569;28;20543;-81
2022/07/02 04:04:09;;;;;;;9.02;6.15;;;;;;;;;;5019738;28;20896;-81
2022/07/02 04:06:34;;;;;;;9.25;6.70;;;;;;;;;;5020442;28;20132;-81
2022/07/02 04:08:59;;;;;;;8.13;6.25;;;;;;;;;;5006281;28;20036;-78
2022/07/02 04:11:25;;;;;;;10.57;6.78;;;;;;;;;;5020023;28;20026;-77
2022/07/02 04:13:50;;;;;;;10.43;6.20;;;;;;;;;;5000344;28;20033;-83
2022/07/02 04:16:15;;;;;;;8.18;5.45;;;;;;;;;;5019011;28;20036;-79
2022/07/02 04:18:43;;;;;;;9.43;5.85;;;;;;;;;;5021475;28;20501;-80
2022/07/02 04:21:09;;;;;;;7.13;6.25;;;;;;;;;;5022025;28;20029;-82
2022/07/02 04:23:34;;;;;;;7.93;5.90;;;;;;;;;;5018663;28;20026;-77
2022/07/02 04:25:59;;;;;;;10.45;6.70;;;;;;;;;;5004872;28;20656;-79
2022/07/02 04:28:25;;;;;;;9.10;6.13;;;;;;;;;;5020225;28;20052;-79
2022/07/02 04:30:51;;;;;;;8.00;5.60;;;;;;;;;;5021807;28;20302;-78
2022/07/02 04:33:16;;;;;;;9.43;5.95;;;;;;;;;;5024577;28;20075;-77
2022/07/02 04:35:41;;;;;;;9.60;5.05;;;;;;;;;;5020187;28;20029;-81
2022/07/02 04:38:06;;;;;;;6.47;5.47;;;;;;;;;;5021149;28;20825;-81
2022/07/02 04:40:32;;;;;;;9.82;5.13;;;;;;;;;;5016311;28;20037;-77
2022/07/02 04:42:57;;;;;;;8.35;6.15;;;;;;;;;;5017737;28;20025;-81
2022/07/02 04:45:22;;;;;;;7.10;4.85;;;;;;;;;;5021556;28;20044;-78
2022/07/02 04:47:47;;;;;;;8.85;5.00;;;;;;;;;;5023019;28;20028;-83
2022/07/02 04:50:13;;;;;;;10.82;5.40;;;;;;;;;;5021244;28;20037;-78
2022/07/02 04:52:38;;;;;;;9.35;6.43;;;;;;;;;;5022612;28;20100;-78
2022/07/02 04:55:03;;;;;;;8.52;5.88;;;;;;;;;;5020906;28;20120;-78
2022/07/02 04:57:28;;;;;;;8.70;5.15;;;;;;;;;;5006222;28;20033;-80
2022/07/02 04:59:54;;;;;;;5.95;4.60;;;;;;;;;;4999040;28;20128;-81
2022/07/02 05:02:19;;;;;;;8.98;4.70;;;;;;;;;;4985676;28;20605;-78
2022/07/02 05:04:44;;;;;;;6.95;4.82;;;;;;;;;;4998853;28;21605;-78
2022/07/02 05:07:09;;;;;;;8.97;4.97;;;;;;;;;;5023838;28;20029;-77
2022/07/02 05:09:34;;;;;;;8.55;4.28;;;;;;;;;;5021385;28;20294;-78
2022/07/02 05:12:00;;;;;;;6.88;5.55;;;;;;;;;;5018232;28;20158;-80
2022/07/02 05:14:26;;;;;;;8.27;4.57;;;;;;;;;;5008122;28;20033;-78
2022/07/02 05:16:52;;;;;;;8.10;5.35;;;;;;;;;;5009187;28;20903;-82
2022/07/02 05:19:17;;;;;;;8.88;5.35;;;;;;;;;;5023861;28;20021;-81
2022/07/02 05:21:43;;;;;;;9.07;5.93;;;;;;;;;;5023612;28;20036;-81
2022/07/02 05:24:09;;;;;;;9.13;5.53;;;;;;;;;;5022888;28;20503;-82
2022/07/02 05:26:34;;;;;;;11.45;4.97;;;;;;;;;;5007316;28;20029;-80
2022/07/02 05:28:59;;;;;;;10.07;5.20;;;;;;;;;;5024516;28;20020;-77
2022/07/02 05:31:24;;;;;;;8.70;5.75;;;;;;;;;;5022019;28;20448;-78
2022/07/02 05:33:50;;;;;;;6.07;4.67;;;;;;;;;;5023524;28;20493;-76
2022/07/02 05:36:15;;;;;;;6.88;4.05;;;;;;;;;;5020304;28;20306;-77
2022/07/02 05:38:40;;;;;;;5.00;3.35;;;;;;;;;;5026369;28;20376;-81
2022/07/02 05:41:07;;;;;;;8.93;3.35;;;;;;;;;;5006786;28;20393;-82
2022/07/02 05:43:32;;;;;;;6.25;3.28;;;;;;;;;;5020223;28;20029;-81
2022/07/02 05:45:57;;;;;;;9.52;3.75;;;;;;;;;;5024236;28;20087;-81
2022/07/02 05:48:22;;;;;;;7.40;2.97;;;;;;;;;;5024400;28;20029;-81
2022/07/02 05:50:47;;;;;;;5.80;3.95;;;;;;;;;;5026642;28;20483;-82
2022/07/02 05:53:13;;;;;;;5.85;3.20;;;;;;;;;;5028798;28;20493;-82
2022/07/02 05:55:41;;;;;;;6.13;2.60;;;;;;;;;;5018737;28;20029;-79
2022/07/02 05:58:07;;;;;;;7.25;2.95;;;;;;;;;;5001443;28;20605;-79
2022/07/02 06:00:32;;;;;;;4.47;2.50;;;;;;;;;;5003512;28;20091;-81
2022/07/02 06:02:58;;;;;;;5.20;2.70;;;;;;;;;;5021665;28;20091;-81
2022/07/02 06:08:07;;;;;;;5.13;2.83;;;;;;;;;;5023003;28;20106;-82
2022/07/02 06:10:32;;;;;;;3.97;2.65;;;;;;;;;;5001974;28;20037;-78
2022/07/02 06:12:57;;;;;;;4.15;2.72;;;;;;;;;;5017584;28;20402;-82
2022/07/02 06:15:23;;;;;;;8.60;2.60;;;;;;;;;;5016657;28;20440;-82
2022/07/02 06:17:49;;;;;;;4.53;2.40;;;;;;;;;;5013682;28;20527;-83
2022/07/02 06:20:14;;;;;;;7.13;2.42;;;;;;;;;;5010126;28;20037;-77
2022/07/02 06:22:40;;;;;;;4.93;2.58;;;;;;;;;;4998901;28;20076;-83
2022/07/02 06:25:06;;;;;;;8.30;2.70;;;;;;;;;;5013892;28;20046;-78
2022/07/02 06:27:33;;;;;;;5.28;2.50;;;;;;;;;;5002151;28;20026;-83
2022/07/02 06:29:58;;;;;;;5.30;2.90;;;;;;;;;;5017202;28;20034;-79
2022/07/02 06:32:24;;;;;;;2.92;1.98;;;;;;;;;;5000456;28;20083;-80
2022/07/02 06:34:52;;;;;;;4.03;2.15;;;;;;;;;;5015740;28;20045;-78
2022/07/02 06:37:17;;;;;;;4.75;2.03;;;;;;;;;;5018322;28;20060;-81
2022/07/02 06:39:43;;;;;;;2.63;2.10;;;;;;;;;;5019030;28;20076;-81
2022/07/02 06:42:26;;;;;;;4.35;2.22;;;;;;;;;;5016493;28;20127;-80
2022/07/02 06:44:53;;;;;;;7.82;2.40;;;;;;;;;;5013910;28;20056;-78
2022/07/02 06:47:21;;;;;;;3.80;1.80;;;;;;;;;;4997037;28;20366;-81
2022/07/02 06:49:47;;;;;;;3.97;2.42;;;;;;;;;;5018960;28;20568;-81
2022/07/02 06:52:12;;;;;;;6.20;3.10;;;;;;;;;;5024692;28;20029;-82
2022/07/02 06:54:38;;;;;;;6.50;2.10;;;;;;;;;;5022070;28;20026;-79
2022/07/02 06:57:03;;;;;;;7.13;3.55;;;;;;;;;;5026612;28;20042;-82
2022/07/02 06:59:29;;;;;;;4.57;2.10;;;;;;;;;;5022968;28;20037;-79
2022/07/02 07:01:54;;;;;;;3.85;1.70;;;;;;;;;;5019855;28;20041;-82
2022/07/02 07:04:19;;;;;;;3.63;2.20;;;;;;;;;;5017916;28;20033;-82
2022/07/02 07:09:13;;;;;;;4.00;2.17;;;;;;;;;;5023459;28;20124;-81
2022/07/02 07:11:39;;;;;;;3.63;2.17;;;;;;;;;;5003103;28;20025;-82
2022/07/02 07:14:04;;;;;;;4.47;1.83;;;;;;;;;;5020868;28;20027;-82
2022/07/02 07:16:29;;;;;;;4.63;1.90;;;;;;;;;;5019652;28;20033;-81
2022/07/02 07:19:10;;;;;;;2.95;1.60;;;;;;;;;;5019431;28;20493;-79
2022/07/02 07:21:36;;;;;;;2.17;1.50;;;;;;;;;;5019747;28;20029;-81
2022/07/02 07:24:01;;;;;;;6.10;1.88;;;;;;;;;;5016606;28;20119;-82
2022/07/02 07:26:27;;;;;;;2.40;2.03;;;;;;;;;;5002015;28;20048;-84
2022/07/02 07:28:52;;;;;;;2.03;1.58;;;;;;;;;;5018751;28;20444;-82
2022/07/02 07:31:20;;;;;;;1.98;1.70;;;;;;;;;;5017526;28;20034;-79
2022/07/02 07:33:52;;;;;;;5.50;2.10;;;;;;;;;;5020535;28;20029;-79
2022/07/02 07:36:18;;;;;;;3.65;1.65;;;;;;;;;;5025292;28;20029;-83
2022/07/02 07:38:43;;;;;;;4.07;1.92;;;;;;;;;;5022716;28;22674;-83
2022/07/02 07:41:09;;;;;;;4.40;1.50;;;;;;;;;;5021514;28;21275;-81
2022/07/02 07:43:34;;;;;;;2.13;1.27;;;;;;;;;;5014328;28;20447;-83
2022/07/02 07:45:59;;;;;;;2.40;1.40;;;;;;;;;;5013603;28;20025;-83
2022/07/02 07:48:24;;;;;;;3.15;1.33;;;;;;;;;;5027915;28;20109;-83
2022/07/02 07:50:50;;;;;;;2.60;1.52;;;;;;;;;;5028190;28;20030;-80
2022/07/02 07:53:15;;;;;;;2.83;1.67;;;;;;;;;;5010710;28;20029;-81
2022/07/02 07:55:40;;;;;;;2.15;1.63;;;;;;;;;;5009263;28;20032;-81
2022/07/02 07:58:06;;;;;;;4.15;1.90;;;;;;;;;;5030482;28;20024;-81
2022/07/02 08:00:32;;;;;;;2.70;1.48;;;;;;;;;;5008462;28;20071;-81
2022/07/02 08:02:57;;;;;;;3.08;1.10;;;;;;;;;;5014111;28;20049;-80
2022/07/02 08:05:22;;;;;;;2.33;1.38;;;;;;;;;;5031557;28;20485;-80
2022/07/02 08:07:48;;;;;;;4.57;1.10;;;;;;;;;;5006890;28;20029;-83
2022/07/02 08:10:13;;;;;;;2.55;1.10;;;;;;;;;;5033051;28;20813;-81
2022/07/02 08:12:40;;;;;;;3.15;1.27;;;;;;;;;;5027576;28;20091;-82
2022/07/02 08:15:06;;;;;;;3.58;1.70;;;;;;;;;;5028008;28;20103;-81
2022/07/02 08:17:34;;;;;;;1.50;1.00;;;;;;;;;;5036114;28;20033;-83
2022/07/02 08:19:59;;;;;;;1.20;0.90;;;;;;;;;;5037611;28;20401;-83
2022/07/02 08:22:25;;;;;;;1.63;1.00;;;;;;;;;;5012005;28;20018;-80
2022/07/02 08:24:50;;;;;;;1.98;1.10;;;;;;;;;;5031008;28;20018;-82
2022/07/02 08:27:16;;;;;;;2.22;1.10;;;;;;;;;;5009815;28;20057;-80
2022/07/02 08:29:44;;;;;;;1.30;0.88;;;;;;;;;;5032234;28;20030;-82
2022/07/02 08:32:09;;;;;;;1.55;0.90;;;;;;;;;;5030207;28;20029;-82
2022/07/02 08:34:34;;;;;;;1.17;0.90;;;;;;;;;;5030776;28;20638;-81
2022/07/02 08:37:00;;;;;;;2.67;1.17;;;;;;;;;;5032338;28;20068;-82
2022/07/02 08:39:25;;;;;;;1.80;1.70;;;;;;;;;;5032851;28;20132;-80
2022/07/02 08:41:52;;;;;;;1.38;0.90;;;;;;;;;;5012315;28;20025;-80
2022/07/02 08:44:19;;;;;;;1.30;0.85;;;;;;;;;;5028213;28;20033;-82
2022/07/02 08:46:45;;;;;;;2.45;0.88;;;;;;;;;;5029254;28;20453;-81
2022/07/02 08:49:11;;;;;;;4.03;0.90;;;;;;;;;;5028518;28;20044;-81
2022/07/02 08:51:36;;;;;;;1.10;0.80;;;;;;;;;;5032254;28;20014;-83
2022/07/02 08:54:05;;;;;;;1.70;0.80;;;;;;;;;;5030485;28;20051;-82
2022/07/02 08:56:32;;;;;;;4.15;1.05;;;;;;;;;;5012786;28;20029;-83
2022/07/02 08:58:58;;;;;;;3.05;1.55;;;;;;;;;;5032820;28;20399;-80
2022/07/02 09:01:23;;;;;;;1.88;1.10;;;;;;;;;;5011987;28;20053;-80
2022/07/02 09:03:50;;;;;;;1.38;1.00;;;;;;;;;;5030205;28;20108;-83
2022/07/02 09:06:16;;;;;;;2.17;1.55;;;;;;;;;;5015526;28;20038;-81
2022/07/02 09:08:42;;;;;;;2.38;0.93;;;;;;;;;;5012711;28;20025;-82
2022/07/02 09:11:08;;;;;;;3.25;1.00;;;;;;;;;;5027736;28;20138;-82
2022/07/02 09:13:34;;;;;;;1.83;0.80;;;;;;;;;;5026806;28;20037;-84
2022/07/02 09:15:59;;;;;;;4.38;1.30;;;;;;;;;;5008298;28;20067;-82
2022/07/02 09:18:24;;;;;;;3.13;1.00;;;;;;;;;;5008556;28;20153;-84
2022/07/02 09:20:49;;;;;;;1.50;0.90;;;;;;;;;;5022012;28;21347;-82
2022/07/02 09:23:20;;;;;;;1.45;0.70;;;;;;;;;;5022106;28;20125;-82
2022/07/02 09:25:46;;;;;;;2.30;1.15;;;;;;;;;;5023177;28;20036;-80
2022/07/02 09:28:12;;;;;;;1.88;1.15;;;;;;;;;;5020489;28;20026;-82
2022/07/02 09:30:38;;;;;;;1.08;0.90;;;;;;;;;;5023193;28;20033;-80
2022/07/02 09:35:47;;;;;;;4.60;1.10;;;;;;;;;;5024189;28;20043;-80
2022/07/02 09:38:12;;;;;;;2.67;1.35;;;;;;;;;;5027557;28;20396;-82
2022/07/02 09:40:38;;;;;;;2.20;1.25;;;;;;;;;;5017513;28;20059;-82
2022/07/02 09:43:03;;;;;;;1.83;1.55;;;;;;;;;;5004242;28;20544;-80
2022/07/02 09:45:29;;;;;;;8.18;1.40;;;;;;;;;;5031810;28;20111;-82
2022/07/02 09:47:54;;;;;;;7.05;1.20;;;;;;;;;;5011714;28;20029;-81
2022/07/02 09:50:20;;;;;;;2.20;1.02;;;;;;;;;;5033760;28;20040;-80
2022/07/02 09:52:52;;;;;;;3.10;1.30;;;;;;;;;;5032414;28;20021;-83
2022/07/02 09:55:22;;;;;;;2.92;1.20;;;;;;;;;;5006526;28;20140;-82
2022/07/02 09:57:54;;;;;;;3.35;1.10;;;;;;;;;;5009972;28;20247;-82
2022/07/02 10:00:23;;;;;;;2.38;1.25;;;;;;;;;;5016992;28;20037;-83
2022/07/02 10:02:49;;;;;;;2.35;1.27;;;;;;;;;;5013364;28;20540;-81
2022/07/02 10:05:14;;;;;;;5.28;1.10;;;;;;;;;;5012468;28;20030;-83
2022/07/02 10:07:43;;;;;;;2.80;0.90;;;;;;;;;;5029685;28;20072;-82
2022/07/02 10:10:09;;;;;;;2.00;1.10;;;;;;;;;;5032605;28;20021;-81
2022/07/02 10:12:34;;;;;;;1.52;0.82;;;;;;;;;;5028408;28;20030;-82
2022/07/02 10:15:04;;;;;;;5.00;1.10;;;;;;;;;;5030768;28;20083;-85
2022/07/02 10:17:32;;;;;;;2.38;1.08;;;;;;;;;;5035482;28;20029;-82
2022/07/02 10:19:58;;;;;;;2.53;1.30;;;;;;;;;;5025943;28;20029;-83
2022/07/02 10:22:27;;;;;;;3.88;1.17;;;;;;;;;;5011428;28;20041;-82
2022/07/02 10:24:53;;;;;;;5.03;1.02;;;;;;;;;;5038285;28;20242;-84
2022/07/02 10:27:18;;;;;;;2.67;1.40;;;;;;;;;;5028645;28;20021;-83
2022/07/02 10:29:44;;;;;;;2.97;1.10;;;;;;;;;;5034725;28;20037;-81
2022/07/02 10:32:18;;;;;;;1.48;0.98;;;;;;;;;;5037808;28;20022;-81
2022/07/02 10:34:56;;;;;;;3.05;1.45;;;;;;;;;;5032906;28;20378;-83
2022/07/02 10:37:21;;;;;;;3.10;1.13;;;;;;;;;;5014512;28;20032;-83
2022/07/02 10:39:46;;;;;;;1.45;1.10;;;;;;;;;;5021587;28;20025;-81
2022/07/02 10:42:11;;;;;;;1.73;0.98;;;;;;;;;;5031478;28;20022;-81
2022/07/02 10:44:38;;;;;;;2.80;1.10;;;;;;;;;;5030265;28;20030;-83
2022/07/02 10:47:03;;;;;;;4.63;1.00;;;;;;;;;;5015742;28;20102;-83
2022/07/02 10:49:32;;;;;;;2.35;1.00;;;;;;;;;;5040749;28;20485;-81
2022/07/02 10:52:01;;;;;;;2.97;1.25;;;;;;;;;;5035327;28;20502;-82
2022/07/02 10:54:33;;;;;;;2.85;1.08;;;;;;;;;;5020550;28;20110;-83
2022/07/02 10:56:58;;;;;;;3.97;1.40;;;;;;;;;;5032552;28;20068;-83
2022/07/02 10:59:42;;;;;;;2.25;1.20;;;;;;;;;;5033551;28;20168;-85
2022/07/02 11:02:08;;;;;;;2.80;1.63;;;;;;;;;;5009860;28;20049;-82
2022/07/02 11:04:33;;;;;;;3.13;1.42;;;;;;;;;;5028736;28;20607;-82
2022/07/02 11:07:07;;;;;;;4.10;1.63;;;;;;;;;;5027845;28;20022;-82
2022/07/02 11:09:32;;;;;;;1.58;1.02;;;;;;;;;;5007377;28;20038;-82
2022/07/02 11:12:02;;;;;;;2.38;1.20;;;;;;;;;;4995984;28;20029;-83
2022/07/02 11:14:29;;;;;;;2.95;1.42;;;;;;;;;;5023125;28;20115;-83
2022/07/02 11:16:55;;;;;;;2.33;1.00;;;;;;;;;;5003946;28;20388;-82
2022/07/02 11:19:22;;;;;;;4.80;1.00;;;;;;;;;;5020819;28;20065;-84
2022/07/02 11:21:48;;;;;;;2.35;1.25;;;;;;;;;;5017736;28;20039;-82
2022/07/02 11:24:20;;;;;;;1.75;1.00;;;;;;;;;;5003025;28;20025;-82
2022/07/02 11:26:45;;;;;;;7.78;1.27;;;;;;;;;;5002366;28;20022;-83
2022/07/02 11:29:11;;;;;;;2.95;1.33;;;;;;;;;;5021002;28;20021;-82
2022/07/02 11:31:37;;;;;;;2.95;1.20;;;;;;;;;;5027560;28;20485;-82
2022/07/02 11:34:03;;;;;;;2.65;1.10;;;;;;;;;;5027318;28;20025;-83
2022/07/02 11:36:28;;;;;;;2.53;1.45;;;;;;;;;;5027064;28;20041;-83
2022/07/02 11:38:54;;;;;;;4.65;1.25;;;;;;;;;;5028117;28;20040;-83
2022/07/02 11:41:23;;;;;;;2.75;1.00;;;;;;;;;;5028416;28;20063;-83
2022/07/02 11:43:55;;;;;;;2.17;1.27;;;;;;;;;;5015927;28;20072;-83
2022/07/02 11:46:20;;;;;;;;;;;;;;;;;;5033380;28;20465;-83
2022/07/02 11:48:46;;;;;;;2.65;2.00;;;;;;;;;;5032653;28;20018;-83
2022/07/02 11:51:15;;;;;;;2.70;1.40;;;;;;;;;;5007887;28;20124;-83
2022/07/02 11:53:40;;;;;;;8.55;3.88;;;;;;;;;;5027646;28;20025;-83
2022/07/02 11:56:07;;;;;;;21.88;12.27;;;;;;;;;;5029521;28;20025;-83
2022/07/02 11:58:38;;;;;;;5.35;3.83;;;;;;;;;;5027563;28;20036;-82
2022/07/02 12:01:03;;;;;;;6.72;3.90;;;;;;;;;;5025128;28;20115;-82
2022/07/02 12:03:29;;;;;;;10.40;4.75;;;;;;;;;;5007664;28;20330;-81
2022/07/02 12:05:54;;;;;;;7.63;4.15;;;;;;;;;;5002384;28;20040;-81
2022/07/02 12:08:20;;;;;;;4.70;1.90;;;;;;;;;;5006605;28;20040;-83
2022/07/02 12:10:45;;;;;;;16.98;7.97;;;;;;;;;;5004521;28;20041;-82
2022/07/02 12:13:11;;;;;;;15.15;7.82;;;;;;;;;;4996655;28;20045;-80
2022/07/02 12:15:43;;;;;;;9.68;6.70;;;;;;;;;;4996895;28;20474;-80
2022/07/02 12:18:18;;;;;;;4.30;2.72;;;;;;;;;;5021256;28;20548;-83
2022/07/02 12:20:45;;;;;;;10.20;4.85;;;;;;;;;;5002983;28;20046;-83
2022/07/02 12:23:13;;;;;;;9.88;4.47;;;;;;;;;;5022562;28;20021;-82
2022/07/02 12:25:45;;;;;;;3.17;1.60;;;;;;;;;;5007866;28;20088;-83
2022/07/02 12:30:54;;;;;;;7.40;3.50;;;;;;;;;;5007459;28;20560;-80
2022/07/02 12:33:32;;;;;;;3.97;2.08;;;;;;;;;;5020109;28;20034;-82
2022/07/02 12:36:02;;;;;;;7.75;3.15;;;;;;;;;;5022226;28;20398;-79
2022/07/02 12:38:27;;;;;;;5.22;1.73;;;;;;;;;;5005944;28;20049;-80
2022/07/02 12:40:59;;;;;;;6.60;2.75;;;;;;;;;;5007262;28;20018;-80
2022/07/02 12:43:24;;;;;;;6.72;1.70;;;;;;;;;;5004432;28;20670;-83
2022/07/02 12:45:50;;;;;;;6.15;1.98;;;;;;;;;;5023733;28;20367;-83
2022/07/02 12:48:16;;;;;;;8.30;3.47;;;;;;;;;;5006305;28;20515;-80
2022/07/02 12:50:42;;;;;;;4.60;2.05;;;;;;;;;;5006205;28;20038;-83
2022/07/02 12:53:09;;;;;;;5.72;2.92;;;;;;;;;;5016979;28;20120;-80
2022/07/02 12:55:38;;;;;;;6.00;2.20;;;;;;;;;;4998182;28;20041;-83
2022/07/02 12:58:05;;;;;;;4.00;1.35;;;;;;;;;;5015869;28;20116;-79
2022/07/02 13:00:31;;;;;;;4.97;2.40;;;;;;;;;;4999501;28;20034;-80
2022/07/02 13:03:06;;;;;;;12.38;2.35;;;;;;;;;;5021088;28;20412;-79
2022/07/02 13:05:32;;;;;;;6.78;1.83;;;;;;;;;;5002850;28;20029;-79
2022/07/02 13:07:58;;;;;;;4.55;2.10;;;;;;;;;;5004742;28;20025;-82
2022/07/02 13:10:23;;;;;;;3.10;1.95;;;;;;;;;;5030762;28;20098;-79
2022/07/02 13:12:49;;;;;;;2.13;1.58;;;;;;;;;;5006763;28;20520;-81
2022/07/02 13:15:14;;;;;;;5.65;2.42;;;;;;;;;;5013706;28;20063;-80
2022/07/02 13:17:39;;;;;;;4.00;2.20;;;;;;;;;;5018238;28;20082;-80
2022/07/02 13:20:05;;;;;;;4.38;1.58;;;;;;;;;;5023408;28;20785;-83
2022/07/02 13:22:33;;;;;;;6.70;1.80;;;;;;;;;;5023092;28;20083;-80
2022/07/02 13:25:01;;;;;;;5.30;1.55;;;;;;;;;;5019909;28;20048;-80
2022/07/02 13:27:26;;;;;;;3.97;1.40;;;;;;;;;;5008226;28;20025;-80
2022/07/02 13:29:51;;;;;;;2.55;1.25;;;;;;;;;;5006234;28;20088;-80
2022/07/02 13:32:17;;;;;;;2.65;1.50;;;;;;;;;;5023508;28;20082;-83
2022/07/02 13:34:42;;;;;;;2.53;1.40;;;;;;;;;;5006203;28;20110;-84
2022/07/02 13:37:07;;;;;;;4.95;1.67;;;;;;;;;;5026104;28;20064;-85
2022/07/02 13:39:36;;;;;;;3.65;1.70;;;;;;;;;;5024577;28;20033;-84
2022/07/02 13:42:01;;;;;;;6.50;1.60;;;;;;;;;;5021834;28;20059;-80
2022/07/02 13:44:33;;;;;;;3.08;1.50;;;;;;;;;;5019095;28;20129;-80
2022/07/02 13:46:59;;;;;;;9.57;1.75;;;;;;;;;;5022577;28;20017;-84
2022/07/02 13:49:27;;;;;;;4.43;1.50;;;;;;;;;;5003290;28;20462;-80
2022/07/02 13:51:52;;;;;;;4.50;1.60;;;;;;;;;;5002587;28;21222;-83
2022/07/02 13:54:18;;;;;;;5.10;1.48;;;;;;;;;;5007479;28;20044;-81
2022/07/02 13:56:44;;;;;;;4.35;1.70;;;;;;;;;;5031350;28;20024;-82
2022/07/02 13:59:09;;;;;;;3.20;1.70;;;;;;;;;;5005175;28;20088;-80
2022/07/02 14:01:37;;;;;;;3.47;1.50;;;;;;;;;;5009872;28;20053;-81
2022/07/02 14:04:06;;;;;;;2.70;1.20;;;;;;;;;;4997446;28;20446;-80
2022/07/02 14:06:34;;;;;;;4.28;1.50;;;;;;;;;;5033385;28;20092;-81
2022/07/02 14:09:03;;;;;;;2.50;1.33;;;;;;;;;;5008318;28;20568;-81
2022/07/02 14:11:28;;;;;;;3.22;1.58;;;;;;;;;;5005679;28;20117;-81
2022/07/02 14:13:54;;;;;;;4.07;1.58;;;;;;;;;;5008730;28;20133;-80
2022/07/02 14:16:19;;;;;;;4.18;1.58;;;;;;;;;;5001323;28;20468;-82
2022/07/02 14:18:45;;;;;;;2.38;1.60;;;;;;;;;;5016931;28;20038;-82
2022/07/02 14:21:11;;;;;;;4.40;1.50;;;;;;;;;;5009648;28;20066;-82
2022/07/02 14:23:36;;;;;;;3.60;1.55;;;;;;;;;;5005650;28;20607;-82
2022/07/02 14:26:05;;;;;;;2.80;1.48;;;;;;;;;;5012044;28;20017;-82
2022/07/02 14:28:34;;;;;;;3.90;1.73;;;;;;;;;;4998999;28;20026;-81
2022/07/02 14:31:00;;;;;;;2.65;1.30;;;;;;;;;;5025879;28;20088;-81
2022/07/02 14:33:26;;;;;;;4.15;1.80;;;;;;;;;;5012587;28;20482;-81
2022/07/02 14:35:52;;;;;;;4.35;1.60;;;;;;;;;;5006572;28;20042;-82
2022/07/02 14:38:17;;;;;;;5.38;1.50;;;;;;;;;;5009433;28;20276;-81
2022/07/02 14:40:42;;;;;;;2.15;1.33;;;;;;;;;;5006313;28;20059;-81
2022/07/02 14:43:08;;;;;;;3.80;1.70;;;;;;;;;;5021401;28;20042;-81
2022/07/02 14:45:33;;;;;;;3.53;1.52;;;;;;;;;;5007746;28;20057;-81
2022/07/02 14:47:58;;;;;;;4.60;1.80;;;;;;;;;;5022270;28;20018;-82